createdAt,value
2023-02-25T00:00:21.283Z,78.57
2023-02-25T00:03:10.273Z,78.38
2023-02-25T00:05:40.426Z,78.49
2023-02-25T00:08:09.456Z,77.94
2023-02-25T00:10:38.250Z,77.58
2023-02-25T00:13:17.777Z,78.23
2023-02-25T00:15:47.587Z,77.98
2023-02-25T00:18:16.788Z,78.27
2023-02-25T00:20:45.641Z,78.34
2023-02-25T00:23:14.572Z,78.69
2023-02-25T00:25:45.574Z,78.56
2023-02-25T00:28:15.976Z,78.14
2023-02-25T00:30:44.879Z,78.68
2023-02-25T00:33:14.280Z,77.99
2023-02-25T00:35:43.520Z,78.72
2023-02-25T00:38:16.004Z,78.35
2023-02-25T00:40:47.826Z,78.34
2023-02-25T00:43:16.646Z,78.10
2023-02-25T00:45:45.815Z,77.90
2023-02-25T00:48:15.263Z,78.64
2023-02-25T00:50:44.123Z,78.52
2023-02-25T00:53:12.927Z,78.77
2023-02-25T00:55:42.309Z,78.16
2023-02-25T00:58:11.984Z,78.85
2023-02-25T01:00:51.738Z,78.50
2023-02-25T01:03:21.634Z,78.86
2023-02-25T01:05:50.723Z,78.31
2023-02-25T01:08:20.617Z,78.79
2023-02-25T01:10:49.776Z,78.32
2023-02-25T01:13:18.707Z,78.05
2023-02-25T01:15:49.538Z,78.64
2023-02-25T01:18:20.087Z,78.56
2023-02-25T01:20:48.978Z,78.91
2023-02-25T01:23:17.767Z,78.71
2023-02-25T01:25:46.636Z,78.99
2023-02-25T01:28:15.918Z,78.26
2023-02-25T01:30:45.121Z,78.07
2023-02-25T01:33:14.190Z,78.07
2023-02-25T01:35:43.023Z,78.81
2023-02-25T01:38:12.350Z,78.67
2023-02-25T01:40:41.192Z,79.04
2023-02-25T01:43:15.552Z,79.02
2023-02-25T01:45:44.120Z,79.11
2023-02-25T01:48:17.246Z,78.91
2023-02-25T01:50:50.148Z,78.86
2023-02-25T01:53:24.418Z,79.00
2023-02-25T01:55:55.224Z,78.26
2023-02-25T01:58:25.415Z,79.07
2023-02-25T02:00:55.147Z,78.59
2023-02-25T02:03:28.208Z,78.85
2023-02-25T02:06:06.071Z,78.35
2023-02-25T02:08:36.884Z,79.14
2023-02-25T02:11:06.186Z,78.28
2023-02-25T02:13:38.543Z,79.24
2023-02-25T02:16:22.387Z,79.23
2023-02-25T02:18:57.361Z,78.39
2023-02-25T02:21:48.262Z,79.42
2023-02-25T02:24:45.929Z,78.39
2023-02-25T02:27:24.089Z,79.15
2023-02-25T02:30:25.829Z,78.43
2023-02-25T02:33:03.188Z,79.35
2023-02-25T02:35:39.290Z,79.42
2023-02-25T02:38:14.289Z,78.95
2023-02-25T02:40:57.962Z,79.40
2023-02-25T02:43:40.166Z,78.51
2023-02-25T02:46:18.145Z,79.10
2023-02-25T02:48:55.426Z,78.51
2023-02-25T02:51:31.798Z,79.27
2023-02-25T02:54:05.774Z,78.94
2023-02-25T02:56:39.013Z,78.91
2023-02-25T02:59:12.247Z,79.52
2023-02-25T03:01:45.980Z,79.48
2023-02-25T03:04:21.465Z,79.57
2023-02-25T03:06:56.340Z,79.05
2023-02-25T03:09:30.293Z,79.57
2023-02-25T03:12:00.111Z,79.21
2023-02-25T03:14:29.219Z,79.55
2023-02-25T03:17:05.261Z,79.42
2023-02-25T03:19:39.994Z,79.39
2023-02-25T03:22:15.864Z,78.61
2023-02-25T03:24:49.977Z,79.59
2023-02-25T03:27:25.813Z,79.07
2023-02-25T03:30:03.733Z,79.00
2023-02-25T03:32:41.182Z,78.98
2023-02-25T03:35:12.880Z,79.56
2023-02-25T03:37:44.282Z,78.68
2023-02-25T03:40:16.338Z,79.13
2023-02-25T03:42:49.900Z,79.54
2023-02-25T03:45:21.556Z,79.39
2023-02-25T03:47:51.265Z,78.96
2023-02-25T03:50:21.697Z,79.37
2023-02-25T03:52:55.510Z,78.68
2023-02-25T03:55:46.841Z,79.00
2023-02-25T03:58:18.375Z,79.51
2023-02-25T04:00:50.678Z,79.22
2023-02-25T04:03:20.077Z,78.66
2023-02-25T04:05:48.942Z,79.62
2023-02-25T04:08:19.091Z,79.45
2023-02-25T04:10:48.421Z,79.18
2023-02-25T04:13:20.357Z,79.19
2023-02-25T04:15:50.786Z,78.67
2023-02-25T04:18:19.739Z,79.12
2023-02-25T04:20:48.511Z,79.15
2023-02-25T04:23:17.648Z,79.37
2023-02-25T04:25:46.502Z,78.73
2023-02-25T04:28:15.442Z,78.81
2023-02-25T04:30:44.713Z,78.86
2023-02-25T04:33:14.115Z,78.92
2023-02-25T04:35:43.780Z,78.92
2023-02-25T04:38:12.614Z,78.90
2023-02-25T04:40:42.303Z,78.84
2023-02-25T04:43:14.190Z,78.81
2023-02-25T04:45:43.049Z,79.69
2023-02-25T04:48:12.044Z,78.71
2023-02-25T04:50:41.156Z,79.22
2023-02-25T04:53:09.977Z,79.88
2023-02-25T04:55:38.926Z,78.94
2023-02-25T04:58:07.769Z,79.83
2023-02-25T05:00:40.082Z,79.01
2023-02-25T05:03:08.873Z,79.27
2023-02-25T05:05:38.178Z,79.66
2023-02-25T05:08:07.089Z,78.92
2023-02-25T05:10:36.631Z,79.37
2023-02-25T05:13:06.090Z,78.99
2023-02-25T05:15:34.936Z,79.02
2023-02-25T05:18:04.939Z,79.99
2023-02-25T05:20:33.826Z,79.84
2023-02-25T05:23:02.671Z,79.23
2023-02-25T05:25:33.155Z,79.21
2023-02-25T05:28:02.048Z,79.65
2023-02-25T05:30:31.025Z,79.68
2023-02-25T05:32:59.841Z,79.25
2023-02-25T05:35:28.652Z,79.95
2023-02-25T05:37:57.986Z,79.20
2023-02-25T05:40:27.187Z,79.19
2023-02-25T05:42:57.465Z,80.11
2023-02-25T05:45:26.306Z,79.71
2023-02-25T05:47:56.847Z,80.27
2023-02-25T05:50:25.631Z,79.64
2023-02-25T05:52:54.669Z,79.31
2023-02-25T05:55:26.568Z,79.77
2023-02-25T05:57:55.385Z,80.01
2023-02-25T06:00:24.449Z,79.74
2023-02-25T06:02:53.298Z,80.21
2023-02-25T06:05:22.082Z,80.22
2023-02-25T06:07:51.041Z,79.57
2023-02-25T06:10:21.784Z,79.96
2023-02-25T06:12:50.927Z,80.22
2023-02-25T06:15:20.397Z,79.39
2023-02-25T06:17:49.760Z,79.76
2023-02-25T06:20:19.166Z,80.32
2023-02-25T06:22:48.113Z,79.89
2023-02-25T06:25:17.122Z,80.00
2023-02-25T06:27:45.917Z,79.69
2023-02-25T06:30:15.234Z,80.14
2023-02-25T06:32:44.184Z,80.07
2023-02-25T06:35:14.076Z,79.75
2023-02-25T06:37:43.070Z,79.53
2023-02-25T06:40:15.145Z,80.19
2023-02-25T06:42:44.326Z,79.42
2023-02-25T06:45:13.255Z,80.48
2023-02-25T06:47:42.362Z,79.84
2023-02-25T06:50:12.867Z,80.52
2023-02-25T06:52:41.657Z,80.29
2023-02-25T06:55:11.673Z,79.61
2023-02-25T06:57:49.352Z,80.04
2023-02-25T07:00:19.773Z,80.15
2023-02-25T07:02:48.674Z,79.73
2023-02-25T07:05:17.860Z,80.15
2023-02-25T07:07:47.149Z,80.03
2023-02-25T07:10:16.145Z,79.62
2023-02-25T07:12:45.362Z,80.23
2023-02-25T07:15:14.252Z,80.55
2023-02-25T07:17:43.158Z,80.50
2023-02-25T07:20:13.810Z,79.71
2023-02-25T07:22:43.125Z,79.92
2023-02-25T07:25:12.682Z,80.14
2023-02-25T07:27:45.676Z,80.48
2023-02-25T07:30:15.511Z,79.86
2023-02-25T07:32:45.186Z,79.86
2023-02-25T07:35:14.789Z,80.14
2023-02-25T07:37:43.688Z,80.10
2023-02-25T07:40:15.969Z,80.29
2023-02-25T07:42:45.149Z,80.53
2023-02-25T07:45:14.530Z,80.18
2023-02-25T07:47:43.477Z,80.31
2023-02-25T07:50:13.311Z,79.84
2023-02-25T07:52:42.373Z,80.59
2023-02-25T07:55:12.571Z,80.55
2023-02-25T07:57:42.050Z,80.50
2023-02-25T08:00:13.386Z,80.91
2023-02-25T08:02:43.389Z,80.88
2023-02-25T08:05:12.416Z,79.96
2023-02-25T08:07:41.230Z,80.75
2023-02-25T08:10:12.173Z,79.93
2023-02-25T08:12:42.615Z,80.02
2023-02-25T08:15:12.508Z,80.20
2023-02-25T08:17:41.377Z,80.21
2023-02-25T08:20:14.198Z,80.37
2023-02-25T08:22:43.115Z,79.97
2023-02-25T08:25:11.973Z,80.91
2023-02-25T08:27:43.543Z,80.24
2023-02-25T08:30:14.634Z,80.97
2023-02-25T08:32:43.777Z,80.85
2023-02-25T08:35:13.795Z,80.27
2023-02-25T08:37:44.903Z,80.16
2023-02-25T08:40:14.471Z,80.14
2023-02-25T08:42:43.832Z,80.59
2023-02-25T08:45:13.001Z,80.38
2023-02-25T08:47:42.046Z,79.93
2023-02-25T08:50:12.676Z,80.47
2023-02-25T08:52:42.335Z,79.99
2023-02-25T08:55:14.324Z,80.78
2023-02-25T08:57:43.971Z,80.38
2023-02-25T09:00:15.434Z,79.96
2023-02-25T09:02:44.552Z,80.48
2023-02-25T09:05:13.848Z,80.52
2023-02-25T09:07:42.785Z,80.33
2023-02-25T09:10:13.608Z,80.10
2023-02-25T09:12:45.979Z,80.66
2023-02-25T09:15:15.202Z,80.16
2023-02-25T09:17:44.011Z,80.25
2023-02-25T09:20:13.068Z,80.19
2023-02-25T09:22:41.896Z,80.44
2023-02-25T09:25:11.467Z,80.20
2023-02-25T09:27:44.246Z,80.29
2023-02-25T09:30:14.899Z,79.53
2023-02-25T09:32:44.874Z,79.68
2023-02-25T09:35:13.910Z,79.48
2023-02-25T09:37:42.760Z,79.61
2023-02-25T09:40:16.715Z,79.52
2023-02-25T09:42:53.408Z,79.60
2023-02-25T09:45:25.014Z,79.33
2023-02-25T09:47:58.530Z,79.36
2023-02-25T09:50:32.071Z,79.52
2023-02-25T09:53:10.939Z,79.46
2023-02-25T09:55:44.554Z,79.44
2023-02-25T09:58:24.135Z,79.59
2023-02-25T10:01:01.880Z,79.31
2023-02-25T10:03:45.668Z,79.14
2023-02-25T10:06:22.233Z,79.10
2023-02-25T10:08:59.489Z,79.28
2023-02-25T10:11:41.031Z,78.66
2023-02-25T10:14:22.249Z,79.08
2023-02-25T10:16:59.442Z,78.66
2023-02-25T10:19:43.233Z,78.70
2023-02-25T10:22:34.119Z,79.06
2023-02-25T10:25:12.047Z,77.97
2023-02-25T10:27:50.550Z,78.52
2023-02-25T10:30:26.212Z,78.54
2023-02-25T10:32:55.777Z,78.80
2023-02-25T10:35:28.145Z,78.77
2023-02-25T10:37:56.987Z,78.54
2023-02-25T10:40:28.751Z,78.83
2023-02-25T10:43:01.558Z,78.69
2023-02-25T10:45:32.396Z,78.90
2023-02-25T10:48:06.931Z,78.62
2023-02-25T10:50:45.395Z,78.57
2023-02-25T10:53:17.286Z,78.69
2023-02-25T10:55:51.756Z,78.88
2023-02-25T10:58:28.245Z,78.81
2023-02-25T11:01:01.661Z,78.53
2023-02-25T11:03:32.901Z,78.28
2023-02-25T11:06:20.676Z,78.28
2023-02-25T11:08:52.221Z,78.20
2023-02-25T11:11:24.219Z,78.80
2023-02-25T11:14:05.294Z,78.56
2023-02-25T11:16:37.488Z,78.14
2023-02-25T11:19:17.633Z,78.14
2023-02-25T11:21:47.766Z,78.45
2023-02-25T11:24:23.320Z,78.64
2023-02-25T11:26:53.436Z,78.58
2023-02-25T11:29:26.092Z,78.49
2023-02-25T11:31:59.556Z,78.50
2023-02-25T11:34:31.264Z,78.55
2023-02-25T11:37:24.692Z,78.25
2023-02-25T11:39:56.281Z,78.31
2023-02-25T11:42:26.850Z,78.46
2023-02-25T11:45:01.918Z,78.45
2023-02-25T11:47:33.729Z,78.31
2023-02-25T11:50:24.024Z,78.56
2023-02-25T11:53:04.015Z,78.49
2023-02-25T11:55:53.303Z,78.07
2023-02-25T11:58:37.722Z,77.88
2023-02-25T12:01:17.329Z,77.68
2023-02-25T12:04:05.804Z,77.52
2023-02-25T12:06:51.931Z,78.26
2023-02-25T12:09:43.124Z,77.79
2023-02-25T12:12:44.265Z,77.80
2023-02-25T12:16:03.844Z,77.74
2023-02-25T12:19:14.828Z,78.23
2023-02-25T12:22:12.486Z,78.59
2023-02-25T12:25:12.387Z,78.80
2023-02-25T12:27:54.398Z,77.87
2023-02-25T12:30:52.420Z,78.50
2023-02-25T12:33:56.703Z,77.93
2023-02-25T12:36:42.334Z,77.92
2023-02-25T12:39:26.667Z,77.87
2023-02-25T12:42:05.499Z,78.31
2023-02-25T12:45:09.882Z,78.46
2023-02-25T12:47:57.465Z,77.98
2023-02-25T12:50:52.615Z,77.89
2023-02-25T12:53:37.875Z,78.18
2023-02-25T12:56:28.651Z,78.59
2023-02-25T12:59:11.574Z,78.16
2023-02-25T13:02:12.732Z,78.45
2023-02-25T13:04:58.517Z,77.93
2023-02-25T13:07:48.650Z,78.16
2023-02-25T13:10:34.621Z,77.99
2023-02-25T13:13:20.292Z,77.90
2023-02-25T13:16:04.231Z,77.48
2023-02-25T13:18:41.851Z,78.05
2023-02-25T13:21:35.543Z,77.65
2023-02-25T13:24:17.537Z,78.05
2023-02-25T13:27:13.495Z,77.89
2023-02-25T13:30:12.828Z,78.08
2023-02-25T13:32:54.656Z,78.32
2023-02-25T13:35:38.786Z,77.90
2023-02-25T13:38:23.680Z,77.75
2023-02-25T13:41:06.589Z,77.76
2023-02-25T13:44:05.655Z,78.13
2023-02-25T13:46:52.809Z,77.92
2023-02-25T13:49:50.940Z,78.39
2023-02-25T13:52:28.633Z,78.19
2023-02-25T13:55:23.491Z,77.94
2023-02-25T13:58:13.061Z,78.15
2023-02-25T14:01:00.158Z,78.06
2023-02-25T14:04:19.259Z,78.01
2023-02-25T14:07:10.836Z,77.99
2023-02-25T14:09:46.115Z,78.13
2023-02-25T14:12:33.603Z,78.29
2023-02-25T14:15:32.572Z,77.64
2023-02-25T14:18:20.006Z,77.97
2023-02-25T14:21:05.447Z,77.36
2023-02-25T14:23:45.893Z,78.42
2023-02-25T14:26:30.534Z,78.06
2023-02-25T14:29:20.311Z,78.24
2023-02-25T14:32:01.865Z,77.58
2023-02-25T14:34:56.375Z,78.42
2023-02-25T14:37:39.587Z,77.88
2023-02-25T14:40:25.593Z,77.96
2023-02-25T14:43:26.659Z,77.88
2023-02-25T14:46:00.707Z,78.04
2023-02-25T14:48:39.272Z,77.89
2023-02-25T14:51:35.094Z,77.83
2023-02-25T14:54:41.550Z,77.89
2023-02-25T14:57:45.147Z,78.07
2023-02-25T15:00:51.541Z,77.75
2023-02-25T15:03:50.454Z,78.57
2023-02-25T15:06:37.242Z,78.35
2023-02-25T15:09:31.021Z,77.98
2023-02-25T15:12:16.832Z,78.03
2023-02-25T15:15:26.217Z,78.29
2023-02-25T15:18:22.906Z,77.98
2023-02-25T15:20:53.071Z,78.64
2023-02-25T15:23:41.141Z,78.64
2023-02-25T15:26:23.811Z,78.62
2023-02-25T15:28:54.930Z,78.78
2023-02-25T15:31:30.265Z,78.75
2023-02-25T15:34:38.074Z,78.73
2023-02-25T15:37:29.881Z,78.14
2023-02-25T15:40:02.267Z,78.32
2023-02-25T15:42:48.045Z,78.59
2023-02-25T15:45:52.111Z,78.86
2023-02-25T15:48:39.311Z,78.84
2023-02-25T15:51:32.241Z,78.67
2023-02-25T15:54:02.686Z,78.84
2023-02-25T15:56:48.111Z,78.79
2023-02-25T15:59:43.285Z,78.33
2023-02-25T16:02:45.884Z,78.29
2023-02-25T16:05:25.146Z,78.85
2023-02-25T16:08:13.363Z,78.71
2023-02-25T16:10:46.162Z,78.57
2023-02-25T16:13:21.749Z,78.67
2023-02-25T16:15:55.921Z,78.92
2023-02-25T16:18:27.287Z,78.94
2023-02-25T16:21:05.768Z,78.24
2023-02-25T16:23:40.622Z,78.21
2023-02-25T16:26:22.137Z,79.10
2023-02-25T16:29:00.518Z,79.21
2023-02-25T16:31:38.996Z,78.73
2023-02-25T16:34:16.717Z,78.97
2023-02-25T16:36:54.526Z,79.02
2023-02-25T16:39:29.944Z,78.76
2023-02-25T16:42:06.022Z,78.88
2023-02-25T16:44:38.667Z,78.65
2023-02-25T16:47:23.601Z,78.89
2023-02-25T16:49:54.734Z,79.33
2023-02-25T16:52:29.919Z,79.08
2023-02-25T16:55:04.791Z,78.35
2023-02-25T16:57:38.394Z,78.46
2023-02-25T17:00:16.606Z,78.36
2023-02-25T17:02:47.530Z,78.60
2023-02-25T17:05:29.959Z,78.58
2023-02-25T17:08:01.591Z,78.57
2023-02-25T17:10:33.359Z,79.34
2023-02-25T17:13:04.278Z,79.22
2023-02-25T17:15:35.316Z,79.37
2023-02-25T17:18:09.991Z,79.04
2023-02-25T17:20:41.534Z,79.19
2023-02-25T17:23:12.294Z,78.91
2023-02-25T17:25:45.556Z,79.76
2023-02-25T17:28:21.761Z,78.88
2023-02-25T17:30:54.640Z,79.26
2023-02-25T17:33:26.995Z,79.26
2023-02-25T17:35:59.835Z,79.90
2023-02-25T17:38:30.502Z,79.62
2023-02-25T17:41:00.324Z,79.31
2023-02-25T17:43:36.801Z,79.03
2023-02-25T17:46:21.390Z,79.40
2023-02-25T17:48:55.607Z,79.43
2023-02-25T17:51:33.371Z,79.00
2023-02-25T17:54:08.402Z,78.96
2023-02-25T17:56:42.911Z,79.87
2023-02-25T17:59:38.119Z,79.46
2023-02-25T18:02:29.268Z,79.21
2023-02-25T18:05:21.770Z,79.48
2023-02-25T18:08:10.536Z,80.00
2023-02-25T18:10:46.269Z,79.03
2023-02-25T18:13:24.238Z,79.20
2023-02-25T18:16:34.292Z,79.09
2023-02-25T18:19:23.311Z,79.21
2023-02-25T18:21:53.399Z,80.08
2023-02-25T18:24:29.094Z,79.29
2023-02-25T18:27:26.536Z,79.21
2023-02-25T18:29:59.655Z,79.29
2023-02-25T18:32:28.963Z,79.65
2023-02-25T18:34:58.641Z,79.38
2023-02-25T18:37:31.716Z,79.25
2023-02-25T18:40:01.083Z,79.76
2023-02-25T18:42:30.397Z,79.70
2023-02-25T18:44:59.478Z,79.40
2023-02-25T18:47:33.125Z,79.72
2023-02-25T18:50:02.370Z,80.46
2023-02-25T18:52:31.651Z,79.54
2023-02-25T18:55:00.720Z,79.54
2023-02-25T18:57:30.156Z,79.84
2023-02-25T18:59:59.205Z,80.49
2023-02-25T19:02:31.685Z,79.64
2023-02-25T19:05:02.666Z,80.16
2023-02-25T19:07:34.514Z,79.59
2023-02-25T19:10:07.391Z,79.79
2023-02-25T19:12:40.666Z,80.13
2023-02-25T19:15:15.756Z,80.03
2023-02-25T19:17:45.907Z,79.75
2023-02-25T19:20:20.904Z,79.62
2023-02-25T19:22:52.623Z,79.60
2023-02-25T19:25:23.933Z,79.88
2023-02-25T19:27:55.745Z,80.15
2023-02-25T19:30:28.652Z,79.70
2023-02-25T19:33:03.532Z,80.26
2023-02-25T19:35:39.025Z,80.48
2023-02-25T19:38:11.542Z,79.91
2023-02-25T19:40:40.641Z,80.62
2023-02-25T19:43:09.895Z,79.73
2023-02-25T19:45:42.137Z,79.92
2023-02-25T19:48:11.647Z,80.38
2023-02-25T19:50:42.315Z,80.88
2023-02-25T19:53:11.738Z,80.77
2023-02-25T19:55:43.750Z,80.63
2023-02-25T19:58:12.953Z,79.78
2023-02-25T20:00:46.841Z,80.94
2023-02-25T20:03:16.529Z,79.88
2023-02-25T20:05:45.495Z,79.90
2023-02-25T20:08:14.406Z,79.90
2023-02-25T20:10:44.145Z,80.37
2023-02-25T20:13:13.656Z,79.93
2023-02-25T20:15:42.508Z,80.64
2023-02-25T20:18:11.658Z,79.95
2023-02-25T20:20:42.704Z,80.01
2023-02-25T20:23:12.028Z,80.40
2023-02-25T20:25:42.020Z,80.87
2023-02-25T20:28:11.876Z,80.28
2023-02-25T20:30:40.848Z,80.04
2023-02-25T20:33:11.510Z,79.96
2023-02-25T20:35:42.640Z,80.89
2023-02-25T20:38:29.531Z,80.38
2023-02-25T20:40:59.529Z,80.39
2023-02-25T20:43:28.926Z,80.58
2023-02-25T20:45:58.697Z,80.64
2023-02-25T20:48:32.264Z,80.48
2023-02-25T20:51:01.792Z,80.10
2023-02-25T20:53:32.851Z,80.87
2023-02-25T20:56:01.886Z,80.03
2023-02-25T20:58:31.491Z,80.02
2023-02-25T21:01:00.902Z,80.00
2023-02-25T21:03:30.932Z,80.54
2023-02-25T21:06:00.588Z,80.09
2023-02-25T21:08:29.844Z,79.97
2023-02-25T21:10:59.374Z,80.95
2023-02-25T21:13:28.927Z,80.01
2023-02-25T21:16:00.393Z,80.99
2023-02-25T21:18:31.429Z,80.40
2023-02-25T21:21:07.760Z,80.52
2023-02-25T21:23:39.039Z,80.05
2023-02-25T21:26:09.734Z,80.48
2023-02-25T21:28:41.049Z,80.63
2023-02-25T21:31:12.073Z,80.15
2023-02-25T21:33:42.186Z,81.01
2023-02-25T21:36:12.457Z,80.41
2023-02-25T21:38:41.739Z,81.00
2023-02-25T21:41:12.930Z,80.57
2023-02-25T21:43:43.010Z,80.99
2023-02-25T21:46:18.284Z,80.11
2023-02-25T21:48:55.158Z,80.51
2023-02-25T21:51:25.977Z,80.71
2023-02-25T21:53:56.748Z,80.54
2023-02-25T21:56:27.434Z,80.90
2023-02-25T21:58:58.591Z,80.91
2023-02-25T22:01:29.931Z,81.03
2023-02-25T22:03:59.754Z,80.37
2023-02-25T22:06:29.559Z,80.88
2023-02-25T22:08:59.169Z,80.29
2023-02-25T22:11:31.208Z,80.83
2023-02-25T22:14:02.336Z,81.07
2023-02-25T22:16:31.620Z,80.42
2023-02-25T22:19:00.678Z,80.64
2023-02-25T22:21:31.814Z,80.72
2023-02-25T22:24:02.487Z,80.25
2023-02-25T22:26:34.605Z,80.85
2023-02-25T22:29:06.842Z,81.15
2023-02-25T22:31:40.877Z,81.20
2023-02-25T22:34:11.195Z,80.91
2023-02-25T22:36:43.748Z,80.66
2023-02-25T22:39:20.117Z,80.74
2023-02-25T22:41:53.852Z,80.91
2023-02-25T22:44:23.629Z,80.20
2023-02-25T22:46:55.290Z,80.08
2023-02-25T22:49:26.363Z,80.08
2023-02-25T22:51:56.627Z,80.41
2023-02-25T22:54:27.722Z,81.12
2023-02-25T22:56:59.671Z,80.21
2023-02-25T22:59:29.067Z,81.10
2023-02-25T23:01:59.871Z,80.11
2023-02-25T23:04:30.846Z,81.11
2023-02-25T23:07:04.612Z,80.18
2023-02-25T23:09:33.750Z,80.33
2023-02-25T23:12:03.577Z,81.10
2023-02-25T23:14:35.101Z,80.20
2023-02-25T23:17:04.107Z,80.09
2023-02-25T23:19:33.099Z,80.38
2023-02-25T23:22:03.849Z,80.76
2023-02-25T23:24:33.459Z,80.07
2023-02-25T23:27:03.300Z,79.87
2023-02-25T23:29:32.439Z,80.99
2023-02-25T23:32:02.385Z,80.59
2023-02-25T23:34:31.912Z,81.01
2023-02-25T23:37:04.597Z,80.53
2023-02-25T23:39:34.191Z,80.39
2023-02-25T23:42:03.191Z,80.43
2023-02-25T23:44:32.248Z,79.92
2023-02-25T23:47:01.827Z,81.01
2023-02-25T23:49:31.357Z,81.00
2023-02-25T23:52:08.433Z,80.06
2023-02-25T23:54:38.610Z,80.62
2023-02-25T23:57:07.752Z,79.93
2023-02-25T23:59:37.838Z,79.89
